Time;durP1;ratioP1;P1;durP2;ratioP2;P2;SDS_P1;SDS_P2;PMS_P1;PMS_P2;Temp;Humidity;BMP_temperature;BMP_pressure;BME280_temperature;BME280_humidity;BME280_pressure;Samples;Min_cycle;Max_cycle;Signal;HPM_P1;HPM_P2
2022/10/25 00:00:46;;;;;;;14.60;5.00;;;;;;;17.43;94.50;101540.72;2091336;28;20044;-73
2022/10/25 00:02:10;;;;;;;10.60;5.18;;;;;;;17.47;94.29;101538.91;2086388;28;20037;-73
2022/10/25 00:03:34;;;;;;;11.38;5.88;;;;;;;17.46;93.89;101534.47;2101469;28;20044;-73
2022/10/25 00:04:56;;;;;;;10.40;5.30;;;;;;;17.45;93.88;101530.94;2097057;28;20139;-73
2022/10/25 00:06:19;;;;;;;11.18;5.13;;;;;;;17.48;94.01;101519.34;2094299;28;20041;-74
2022/10/25 00:07:40;;;;;;;10.02;4.47;;;;;;;17.52;93.80;101524.66;2094256;28;20386;-73
2022/10/25 00:09:03;;;;;;;11.68;5.05;;;;;;;17.54;93.60;101527.34;2096841;28;20045;-72
2022/10/25 00:10:24;;;;;;;13.05;6.00;;;;;;;17.58;93.52;101530.94;2104947;28;20059;-73
2022/10/25 00:11:47;;;;;;;13.02;5.47;;;;;;;17.61;93.11;101533.59;2088044;28;20071;-73
2022/10/25 00:13:08;;;;;;;9.27;4.60;;;;;;;17.61;93.05;101528.25;2091712;28;20151;-73
2022/10/25 00:14:31;;;;;;;11.10;5.18;;;;;;;17.62;93.13;101532.72;2094065;28;20047;-73
2022/10/25 00:15:52;;;;;;;9.70;5.13;;;;;;;17.63;93.18;101532.72;2094078;28;20144;-73
2022/10/25 00:17:15;;;;;;;11.68;5.65;;;;;;;17.64;93.00;101533.63;2088569;28;20152;-73
2022/10/25 00:18:39;;;;;;;10.02;5.55;;;;;;;17.64;92.98;101530.94;2100703;28;20048;-73
2022/10/25 00:20:00;;;;;;;11.38;5.00;;;;;;;17.62;93.34;101528.28;2096732;28;20109;-73
2022/10/25 00:21:23;;;;;;;11.85;5.18;;;;;;;17.60;93.18;101527.34;2094383;28;20060;-72
2022/10/25 00:22:45;;;;;;;9.55;5.13;;;;;;;17.59;93.32;101524.69;2085575;28;20106;-73
2022/10/25 00:24:10;;;;;;;10.27;5.57;;;;;;;17.58;93.66;101528.25;2094261;28;20578;-73
2022/10/25 00:25:33;;;;;;;9.95;5.43;;;;;;;17.57;94.23;101526.47;2092981;28;20045;-73
2022/10/25 00:26:55;;;;;;;11.90;6.60;;;;;;;17.57;94.53;101534.47;2080342;28;20049;-72
2022/10/25 00:28:18;;;;;;;9.43;4.68;;;;;;;17.53;94.67;101536.25;2098431;28;20055;-73
2022/10/25 00:29:40;;;;;;;8.85;5.53;;;;;;;17.47;95.20;101531.81;2088604;28;20049;-72
2022/10/25 00:31:02;;;;;;;;;;;;;;;17.42;95.46;101535.38;2094666;28;20036;-73
2022/10/25 00:32:25;;;;;;;9.00;5.93;;;;;;;17.42;95.88;101533.59;2094286;28;19987;-73
2022/10/25 00:33:48;;;;;;;15.93;5.38;;;;;;;17.43;96.02;101540.72;2085429;28;20040;-73
2022/10/25 00:35:10;;;;;;;11.40;5.40;;;;;;;17.43;96.37;101532.69;2090798;28;20078;-73
2022/10/25 00:36:33;;;;;;;8.93;4.90;;;;;;;17.43;96.57;101531.81;2094476;28;20044;-73
2022/10/25 00:37:56;;;;;;;10.15;4.88;;;;;;;17.43;96.63;101531.81;2093268;28;20041;-73
2022/10/25 00:39:18;;;;;;;9.70;5.65;;;;;;;17.44;96.76;101533.59;2093616;28;20044;-72
2022/10/25 00:40:39;;;;;;;8.05;4.80;;;;;;;17.42;96.94;101530.91;2094216;28;20151;-73
2022/10/25 00:42:02;;;;;;;9.40;5.55;;;;;;;17.42;97.03;101532.69;2079234;28;20080;-73
2022/10/25 00:43:34;;;;;;;9.65;5.25;;;;;;;17.40;97.05;101530.03;2091120;28;20069;-72
2022/10/25 00:44:57;;;;;;;;;;;;;;;17.32;97.37;101522.94;2087510;28;20061;-72
2022/10/25 00:46:22;;;;;;;;;;;;;;;17.25;97.73;101527.38;2093709;28;19920;-72
2022/10/25 00:47:48;;;;;;;10.38;5.93;;;;;;;17.27;97.98;101527.34;2091696;28;19920;-72
2022/10/25 00:49:16;;;;;;;9.13;5.30;;;;;;;17.29;97.95;101523.81;2096790;28;20131;-72
2022/10/25 00:50:48;;;;;;;13.70;6.75;;;;;;;17.30;97.84;101527.38;2085761;28;20044;-72
2022/10/25 00:52:09;;;;;;;;;;;;;;;17.23;98.06;101523.81;2088262;28;20057;-72
2022/10/25 00:53:36;;;;;;;12.48;6.32;;;;;;;17.22;98.36;101515.78;2084942;28;20373;-72
2022/10/25 00:54:58;;;;;;;13.15;6.40;;;;;;;17.19;98.42;101513.13;2095458;28;20182;-72
2022/10/25 00:56:25;;;;;;;12.80;5.82;;;;;;;17.17;99.26;101517.56;2096487;28;20086;-72
2022/10/25 00:57:51;;;;;;;14.20;6.53;;;;;;;17.16;99.30;101514.00;2086376;28;20049;-72
2022/10/25 00:59:19;;;;;;;11.63;6.00;;;;;;;17.14;100.00;101515.78;2090614;28;20044;-72
2022/10/25 01:00:44;;;;;;;11.23;6.43;;;;;;;17.13;100.00;101516.69;2094848;28;20041;-72
2022/10/25 01:02:06;;;;;;;10.35;6.10;;;;;;;17.14;100.00;101515.78;2094372;28;20500;-72
2022/10/25 01:03:28;;;;;;;11.13;6.25;;;;;;;17.14;100.00;101513.09;2093701;28;20052;-72
2022/10/25 01:04:53;;;;;;;13.02;6.03;;;;;;;17.14;100.00;101511.34;2088418;28;20099;-72
2022/10/25 01:06:21;;;;;;;12.30;6.38;;;;;;;17.13;100.00;101509.53;2090754;28;20056;-72
2022/10/25 01:07:44;;;;;;;14.43;6.85;;;;;;;17.13;100.00;101519.34;2096393;28;20377;-72
2022/10/25 01:09:08;;;;;;;10.25;5.70;;;;;;;17.12;100.00;101513.13;2096715;28;20056;-72
2022/10/25 01:10:31;;;;;;;9.38;6.13;;;;;;;17.11;100.00;101508.69;2091806;28;20048;-72
2022/10/25 01:11:54;;;;;;;12.25;5.57;;;;;;;17.11;100.00;101518.47;2093967;28;20546;-72
2022/10/25 01:13:15;;;;;;;9.38;6.40;;;;;;;17.10;100.00;101520.22;2096795;28;20052;-72
2022/10/25 01:14:41;;;;;;;10.70;6.45;;;;;;;17.11;100.00;101522.03;2093776;28;20041;-72
2022/10/25 01:16:13;;;;;;;12.63;6.38;;;;;;;17.14;100.00;101523.78;2094620;28;20041;-72
2022/10/25 01:17:44;;;;;;;11.43;6.18;;;;;;;17.18;100.00;101516.69;2095200;28;20502;-71
2022/10/25 01:19:29;;;;;;;12.52;5.88;;;;;;;17.30;100.00;101516.69;2086825;28;20144;-72
2022/10/25 01:21:17;;;;;;;11.90;6.30;;;;;;;17.29;100.00;101499.78;2095915;28;20044;-72
2022/10/25 01:22:46;;;;;;;12.95;5.53;;;;;;;17.29;100.00;101507.78;2088061;28;20692;-72
2022/10/25 01:24:45;;;;;;;12.07;6.30;;;;;;;17.30;100.00;101511.34;2092652;28;20512;-72
2022/10/25 01:26:31;;;;;;;13.05;5.55;;;;;;;17.24;100.00;101509.56;2093339;28;20048;-72
2022/10/25 01:28:04;;;;;;;10.77;6.05;;;;;;;17.22;100.00;101502.44;2088125;28;20595;-71
2022/10/25 01:29:58;;;;;;;11.73;6.07;;;;;;;17.17;100.00;101512.22;2086938;28;20068;-72
2022/10/25 01:31:32;;;;;;;13.70;6.55;;;;;;;17.23;100.00;101504.22;2096414;28;20052;-72
2022/10/25 01:33:08;;;;;;;13.13;5.80;;;;;;;17.34;100.00;101503.34;2096379;28;20042;-71
2022/10/25 01:34:38;;;;;;;8.52;5.22;;;;;;;17.43;100.00;101500.66;2076480;28;20473;-71
2022/10/25 01:36:06;;;;;;;9.95;5.68;;;;;;;17.49;100.00;101497.09;2099872;28;20048;-72
2022/10/25 01:37:36;;;;;;;10.98;6.13;;;;;;;17.46;100.00;101500.66;2095906;28;20049;-72
2022/10/25 01:39:06;;;;;;;10.75;5.53;;;;;;;17.42;100.00;101501.56;2095045;28;20036;-72
2022/10/25 01:40:33;;;;;;;11.23;5.70;;;;;;;17.41;100.00;101499.78;2088195;28;20091;-71
2022/10/25 01:42:07;;;;;;;8.70;5.60;;;;;;;17.38;100.00;101497.13;2086581;28;20053;-71
2022/10/25 01:43:40;;;;;;;10.20;6.20;;;;;;;17.36;100.00;101496.22;2095131;28;20074;-72
2022/10/25 01:45:09;;;;;;;11.55;5.90;;;;;;;17.34;100.00;101494.44;2078939;28;20136;-71
2022/10/25 01:46:40;;;;;;;10.65;6.18;;;;;;;17.28;100.00;101497.09;2092054;28;20600;-72
2022/10/25 01:48:07;;;;;;;13.20;7.18;;;;;;;17.24;100.00;101501.56;2095445;28;20048;-72
2022/10/25 01:49:38;;;;;;;13.35;6.38;;;;;;;17.21;100.00;101489.97;2103016;28;20048;-72
2022/10/25 01:51:09;;;;;;;12.13;5.78;;;;;;;17.20;100.00;101497.09;2096078;28;20040;-72
2022/10/25 01:52:31;;;;;;;10.95;6.40;;;;;;;17.15;100.00;101493.53;2086451;28;20049;-72
2022/10/25 01:53:54;;;;;;;12.30;6.28;;;;;;;17.10;100.00;101500.66;2091312;28;20137;-72
2022/10/25 01:55:18;;;;;;;12.10;6.35;;;;;;;17.07;100.00;101497.97;2093906;28;20154;-72
2022/10/25 01:56:46;;;;;;;10.93;5.97;;;;;;;17.07;100.00;101504.22;2096323;28;20074;-72
2022/10/25 01:58:18;;;;;;;14.10;6.63;;;;;;;17.08;100.00;101505.09;2087925;28;20225;-72
2022/10/25 02:00:07;;;;;;;11.80;6.90;;;;;;;17.06;100.00;101506.91;2095333;28;20516;-72
2022/10/25 02:01:52;;;;;;;10.00;6.13;;;;;;;16.98;100.00;101504.22;2088248;28;20073;-71
2022/10/25 02:03:23;;;;;;;11.13;6.78;;;;;;;16.96;100.00;101503.31;2079155;28;20064;-72
2022/10/25 02:04:56;;;;;;;12.63;6.90;;;;;;;16.96;100.00;101511.31;2084982;28;20461;-72
2022/10/25 02:06:30;;;;;;;10.77;6.75;;;;;;;16.95;100.00;101505.97;2094666;28;20093;-71
2022/10/25 02:08:03;;;;;;;12.68;7.07;;;;;;;16.92;100.00;101500.66;2095376;28;20508;-72
2022/10/25 02:09:32;;;;;;;13.43;6.18;;;;;;;16.91;100.00;101504.19;2095153;28;20052;-72
2022/10/25 02:11:05;;;;;;;10.63;6.30;;;;;;;16.92;100.00;101504.22;2094425;28;20562;-72
2022/10/25 02:12:32;;;;;;;13.43;6.57;;;;;;;16.92;100.00;101509.53;2095241;28;20482;-72
2022/10/25 02:14:02;;;;;;;13.80;6.55;;;;;;;16.92;100.00;101506.00;2088045;28;20045;-72
2022/10/25 02:15:29;;;;;;;9.55;6.50;;;;;;;16.96;100.00;101508.66;2094538;28;20052;-72
2022/10/25 02:16:57;;;;;;;13.40;6.20;;;;;;;17.02;100.00;101508.66;2086116;28;20481;-71
2022/10/25 02:18:25;;;;;;;10.90;6.32;;;;;;;17.07;100.00;101503.31;2084191;28;20049;-72
2022/10/25 02:19:51;;;;;;;11.05;6.85;;;;;;;17.08;100.00;101507.78;2092322;28;20048;-72
2022/10/25 02:21:15;;;;;;;16.80;7.32;;;;;;;17.05;100.00;101508.69;2101547;28;20435;-72
2022/10/25 02:22:39;;;;;;;12.10;6.30;;;;;;;17.08;100.00;101513.09;2087905;28;20162;-71
2022/10/25 02:24:06;;;;;;;11.77;6.68;;;;;;;17.08;100.00;101507.78;2096039;28;20431;-72
2022/10/25 02:25:32;;;;;;;16.35;6.63;;;;;;;17.07;100.00;101509.53;2087673;28;20524;-72
2022/10/25 02:26:55;;;;;;;11.13;6.82;;;;;;;17.07;100.00;101505.97;2092028;28;20113;-72
2022/10/25 02:28:22;;;;;;;11.73;6.93;;;;;;;17.07;100.00;101509.53;2085432;28;20044;-72
2022/10/25 02:29:45;;;;;;;11.75;5.95;;;;;;;17.10;100.00;101508.66;2092064;28;20078;-72
2022/10/25 02:31:10;;;;;;;12.85;7.10;;;;;;;17.10;100.00;101514.00;2085138;28;20048;-72
2022/10/25 02:32:35;;;;;;;12.57;6.55;;;;;;;17.09;100.00;101509.56;2091805;28;20102;-72
2022/10/25 02:33:57;;;;;;;10.57;6.30;;;;;;;17.08;100.00;101502.44;2095623;28;20052;-72
2022/10/25 02:35:20;;;;;;;14.68;6.97;;;;;;;17.04;100.00;101503.34;2086126;28;20711;-72
2022/10/25 02:36:41;;;;;;;10.40;5.85;;;;;;;17.03;100.00;101501.53;2086393;28;20132;-72
2022/10/25 02:38:04;;;;;;;15.07;6.75;;;;;;;17.02;100.00;101505.09;2091759;28;20056;-72
2022/10/25 02:39:30;;;;;;;10.93;7.07;;;;;;;17.01;100.00;101505.97;2086530;28;20079;-72
2022/10/25 02:40:51;;;;;;;14.15;6.68;;;;;;;16.98;100.00;101506.00;2092500;28;20036;-72
2022/10/25 02:42:14;;;;;;;10.18;6.60;;;;;;;16.99;100.00;101500.66;2078542;28;20114;-72
2022/10/25 02:43:35;;;;;;;10.85;6.50;;;;;;;17.00;100.00;101510.41;2081504;28;20045;-72
2022/10/25 02:44:58;;;;;;;10.23;6.35;;;;;;;17.00;100.00;101507.75;2083862;28;20052;-72
2022/10/25 02:46:21;;;;;;;11.90;6.60;;;;;;;17.04;100.00;101506.00;2091272;28;20101;-72
2022/10/25 02:47:45;;;;;;;12.18;6.50;;;;;;;17.03;100.00;101505.09;2103707;28;20051;-72
2022/10/25 02:49:06;;;;;;;11.93;6.10;;;;;;;17.03;100.00;101510.44;2097308;28;20052;-72
2022/10/25 02:50:28;;;;;;;11.10;6.28;;;;;;;17.06;100.00;101512.25;2086496;28;20111;-72
2022/10/25 02:51:50;;;;;;;11.65;6.18;;;;;;;17.07;100.00;101508.66;2086156;28;20451;-72
2022/10/25 02:53:16;;;;;;;12.35;6.30;;;;;;;17.08;100.00;101510.44;2091572;28;20135;-73
2022/10/25 02:54:37;;;;;;;11.80;6.75;;;;;;;17.11;100.00;101510.47;2095393;28;20699;-71
2022/10/25 02:56:01;;;;;;;13.57;6.30;;;;;;;17.11;100.00;101505.13;2086771;28;20408;-72
2022/10/25 02:57:23;;;;;;;12.20;6.18;;;;;;;17.09;100.00;101506.88;2086796;28;20056;-71
2022/10/25 02:58:46;;;;;;;18.02;6.10;;;;;;;17.07;100.00;101501.53;2086558;28;20480;-71
2022/10/25 03:00:09;;;;;;;12.10;6.15;;;;;;;17.05;100.00;101507.78;2095179;28;20105;-72
2022/10/25 03:01:32;;;;;;;12.52;6.25;;;;;;;17.00;100.00;101513.09;2091748;28;20483;-71
2022/10/25 03:02:55;;;;;;;12.23;6.32;;;;;;;16.98;100.00;101506.00;2091829;28;20033;-71
2022/10/25 03:04:18;;;;;;;12.13;6.10;;;;;;;16.96;100.00;101500.66;2086530;28;20515;-72
2022/10/25 03:05:40;;;;;;;10.95;6.57;;;;;;;16.95;100.00;101500.63;2089516;28;20053;-72
2022/10/25 03:07:03;;;;;;;11.55;6.45;;;;;;;16.95;100.00;101508.63;2088865;28;20040;-72
2022/10/25 03:08:24;;;;;;;12.07;6.75;;;;;;;16.93;100.00;101510.44;2093779;28;20438;-72
2022/10/25 03:09:47;;;;;;;13.10;6.50;;;;;;;16.93;100.00;101505.09;2086598;28;20044;-72
2022/10/25 03:11:11;;;;;;;12.50;6.32;;;;;;;16.96;100.00;101505.09;2092285;28;20051;-72
2022/10/25 03:12:34;;;;;;;11.52;6.57;;;;;;;16.95;100.00;101500.63;2095143;28;20496;-72
2022/10/25 03:13:55;;;;;;;15.20;6.93;;;;;;;16.96;100.00;101505.09;2097343;28;20073;-72
2022/10/25 03:15:18;;;;;;;12.27;6.35;;;;;;;16.95;100.00;101503.31;2086759;28;20062;-72
2022/10/25 03:16:41;;;;;;;12.80;6.55;;;;;;;16.93;100.00;101511.34;2086457;28;20045;-72
2022/10/25 03:18:04;;;;;;;16.05;6.95;;;;;;;16.92;100.00;101511.31;2092168;28;20059;-72
2022/10/25 03:19:26;;;;;;;12.35;6.47;;;;;;;16.91;100.00;101504.19;2094854;28;20071;-72
2022/10/25 03:20:48;;;;;;;12.15;5.78;;;;;;;16.91;100.00;101505.09;2094825;28;20144;-72
2022/10/25 03:22:10;;;;;;;14.05;6.30;;;;;;;16.93;100.00;101507.78;2094348;28;20037;-71
2022/10/25 03:23:33;;;;;;;12.43;6.60;;;;;;;16.91;100.00;101504.19;2091703;28;20064;-73
2022/10/25 03:24:54;;;;;;;13.90;6.40;;;;;;;16.92;100.00;101503.31;2086561;28;20486;-73
2022/10/25 03:26:16;;;;;;;12.50;6.47;;;;;;;16.91;100.00;101504.19;2100176;28;20044;-73
2022/10/25 03:27:38;;;;;;;11.32;6.47;;;;;;;16.89;100.00;101505.97;2080386;28;20870;-73
2022/10/25 03:29:00;;;;;;;16.52;7.32;;;;;;;16.87;100.00;101513.09;2097897;28;20454;-72
2022/10/25 03:30:21;;;;;;;12.93;6.57;;;;;;;16.83;100.00;101508.63;2089153;28;20139;-72
2022/10/25 03:31:44;;;;;;;11.30;6.85;;;;;;;16.80;100.00;101509.53;2083059;28;20041;-72
2022/10/25 03:33:07;;;;;;;12.80;7.30;;;;;;;16.79;100.00;101510.41;2091801;28;20052;-72
2022/10/25 03:34:29;;;;;;;10.30;6.85;;;;;;;16.74;100.00;101513.03;2085943;28;20084;-73
2022/10/25 03:35:51;;;;;;;10.13;6.63;;;;;;;16.71;100.00;101515.72;2099990;28;20044;-73
2022/10/25 03:37:14;;;;;;;8.70;6.28;;;;;;;16.68;100.00;101509.47;2097248;28;20137;-72
2022/10/25 03:38:37;;;;;;;10.57;6.25;;;;;;;16.71;100.00;101517.50;2094404;28;20045;-73
2022/10/25 03:39:59;;;;;;;15.10;6.28;;;;;;;16.70;100.00;101518.38;2095222;28;20079;-72
2022/10/25 03:41:22;;;;;;;13.30;6.35;;;;;;;16.69;100.00;101521.94;2102558;28;20051;-72
2022/10/25 03:42:44;;;;;;;12.80;6.20;;;;;;;16.66;100.00;101512.16;2097146;28;20048;-73
2022/10/25 03:44:06;;;;;;;11.55;6.88;;;;;;;16.66;100.00;101512.16;2094329;28;20053;-72
2022/10/25 03:45:28;;;;;;;9.63;6.07;;;;;;;16.65;100.00;101510.38;2087880;28;20052;-72
2022/10/25 03:46:51;;;;;;;13.40;6.45;;;;;;;16.66;100.00;101519.28;2095925;28;20041;-72
2022/10/25 03:48:15;;;;;;;10.00;6.53;;;;;;;16.67;100.00;101513.91;2094296;28;20044;-72
2022/10/25 03:49:37;;;;;;;12.60;6.63;;;;;;;16.70;100.00;101513.94;2086527;28;20049;-73
2022/10/25 03:51:00;;;;;;;11.75;6.18;;;;;;;16.68;100.00;101513.03;2091696;28;20063;-72
2022/10/25 03:52:22;;;;;;;16.27;6.75;;;;;;;16.66;100.00;101505.94;2094570;28;20040;-72
2022/10/25 03:53:43;;;;;;;14.68;7.43;;;;;;;16.64;100.00;101513.03;2086346;28;20041;-72
2022/10/25 03:55:07;;;;;;;13.32;7.63;;;;;;;16.64;100.00;101505.03;2083279;28;20155;-72
2022/10/25 03:56:30;;;;;;;10.35;6.68;;;;;;;16.62;100.00;101505.03;2093963;28;20135;-72
2022/10/25 03:57:51;;;;;;;11.98;7.82;;;;;;;16.60;100.00;101506.81;2094513;28;20045;-72
2022/10/25 03:59:13;;;;;;;15.38;6.95;;;;;;;16.60;100.00;101508.59;2094534;28;20139;-73
2022/10/25 04:00:35;;;;;;;14.18;6.68;;;;;;;16.61;100.00;101507.66;2091655;28;20044;-72
2022/10/25 04:01:57;;;;;;;15.63;7.65;;;;;;;16.58;100.00;101504.97;2093779;28;20041;-72
2022/10/25 04:03:20;;;;;;;15.10;7.43;;;;;;;16.54;100.00;101506.72;2094216;28;20082;-72
2022/10/25 04:04:42;;;;;;;21.70;8.52;;;;;;;16.49;100.00;101500.50;2088867;28;20766;-72
2022/10/25 04:06:05;;;;;;;15.57;7.85;;;;;;;16.45;100.00;101509.38;2091735;28;20044;-72
2022/10/25 04:07:26;;;;;;;16.33;8.70;;;;;;;16.43;100.00;101507.59;2094467;28;20045;-73
2022/10/25 04:08:49;;;;;;;15.13;7.03;;;;;;;16.40;100.00;101502.25;2096798;28;20151;-72
2022/10/25 04:10:10;;;;;;;17.92;9.07;;;;;;;16.38;100.00;101499.59;2092709;28;20048;-72
2022/10/25 04:11:32;;;;;;;14.48;8.05;;;;;;;16.34;100.00;101508.47;2094142;28;20532;-72
2022/10/25 04:12:54;;;;;;;14.18;8.10;;;;;;;16.30;100.00;101506.66;2093578;28;20139;-73
2022/10/25 04:14:16;;;;;;;14.18;7.22;;;;;;;16.26;100.00;101499.53;2085738;28;20087;-72
2022/10/25 04:15:39;;;;;;;14.43;7.57;;;;;;;16.22;100.00;101503.94;2098841;28;20055;-72
2022/10/25 04:17:00;;;;;;;15.43;7.72;;;;;;;16.20;100.00;101503.06;2097019;28;20446;-72
2022/10/25 04:18:24;;;;;;;15.25;7.70;;;;;;;16.20;100.00;101505.75;2091086;28;20431;-72
2022/10/25 04:19:46;;;;;;;11.63;7.68;;;;;;;16.18;100.00;101504.84;2086191;28;20041;-72
2022/10/25 04:21:09;;;;;;;12.85;7.25;;;;;;;16.17;100.00;101500.38;2094129;28;20160;-72
2022/10/25 04:22:31;;;;;;;15.55;8.23;;;;;;;16.16;100.00;101503.03;2094207;28;20101;-72
2022/10/25 04:23:54;;;;;;;12.65;7.88;;;;;;;16.16;100.00;101505.69;2085979;28;20048;-72
2022/10/25 04:25:15;;;;;;;11.27;7.50;;;;;;;16.13;100.00;101503.94;2083516;28;20045;-72
2022/10/25 04:26:38;;;;;;;12.68;7.72;;;;;;;16.12;100.00;101511.91;2091002;28;20049;-71
2022/10/25 04:28:00;;;;;;;12.90;7.40;;;;;;;16.10;100.00;101503.00;2088164;28;20045;-72
2022/10/25 04:29:23;;;;;;;15.05;7.07;;;;;;;16.08;100.00;101507.47;2083347;28;20049;-72
2022/10/25 04:30:45;;;;;;;11.90;6.80;;;;;;;16.10;100.00;101513.66;2085575;28;20037;-72
2022/10/25 04:32:07;;;;;;;14.63;8.05;;;;;;;16.09;100.00;101501.22;2091599;28;20147;-73
2022/10/25 04:33:31;;;;;;;14.27;8.95;;;;;;;16.09;100.00;101515.44;2093667;28;20456;-72
2022/10/25 04:34:52;;;;;;;15.27;8.48;;;;;;;16.07;100.00;101511.91;2102822;28;20037;-72
2022/10/25 04:36:14;;;;;;;17.88;8.63;;;;;;;16.04;100.00;101513.63;2096216;28;20115;-72
2022/10/25 04:37:37;;;;;;;13.93;8.40;;;;;;;16.06;100.00;101517.19;2101950;28;20135;-72
2022/10/25 04:38:58;;;;;;;16.83;7.55;;;;;;;16.08;100.00;101513.66;2082444;28;20099;-72
2022/10/25 04:40:21;;;;;;;14.60;7.65;;;;;;;16.11;100.00;101515.44;2091333;28;20059;-72
2022/10/25 04:41:43;;;;;;;12.18;7.57;;;;;;;16.19;100.00;101516.38;2087960;28;20045;-72
2022/10/25 04:43:04;;;;;;;15.77;9.63;;;;;;;16.24;100.00;101518.19;2075148;28;20045;-73
2022/10/25 04:44:27;;;;;;;19.45;10.48;;;;;;;16.23;100.00;101521.72;2085618;28;20083;-72
2022/10/25 04:45:49;;;;;;;17.73;9.95;;;;;;;16.18;100.00;101514.59;2085845;28;20541;-72
2022/10/25 04:47:10;;;;;;;17.83;9.35;;;;;;;16.13;100.00;101517.25;2085930;28;20049;-72
2022/10/25 04:48:37;;;;;;;22.02;10.95;;;;;;;16.10;100.00;101511.88;2087649;28;20049;-72
2022/10/25 04:50:00;;;;;;;17.50;11.05;;;;;;;16.07;100.00;101511.00;2102573;28;20051;-72
2022/10/25 04:51:21;;;;;;;18.05;11.43;;;;;;;16.05;100.00;101510.09;2090523;28;20505;-72
2022/10/25 04:52:43;;;;;;;16.85;10.77;;;;;;;16.06;100.00;101514.53;2099248;28;20515;-72
2022/10/25 04:54:05;;;;;;;17.02;10.48;;;;;;;16.07;100.00;101519.88;2095395;28;20090;-73
2022/10/25 04:55:27;;;;;;;22.17;11.20;;;;;;;16.09;100.00;101522.53;2092896;28;20040;-72
2022/10/25 04:56:50;;;;;;;21.48;15.38;;;;;;;16.09;100.00;101523.41;2093355;28;20041;-72
2022/10/25 04:58:11;;;;;;;17.23;9.52;;;;;;;16.06;100.00;101519.88;2092900;28;20040;-72
2022/10/25 04:59:33;;;;;;;19.00;10.63;;;;;;;16.10;100.00;101521.66;2093120;28;20086;-72
2022/10/25 05:01:00;;;;;;;17.80;9.38;;;;;;;16.17;100.00;101527.03;2085436;28;20082;-72
2022/10/25 05:02:23;;;;;;;20.27;11.10;;;;;;;16.20;100.00;101532.38;2094309;28;20045;-72
2022/10/25 05:03:48;;;;;;;23.50;11.85;;;;;;;16.20;100.00;101529.72;2094036;28;20221;-72
2022/10/25 05:05:10;;;;;;;15.63;9.20;;;;;;;16.19;100.00;101524.38;2093530;28;20120;-73
2022/10/25 05:06:33;;;;;;;17.27;9.50;;;;;;;16.18;100.00;101527.91;2093977;28;20045;-72
2022/10/25 05:07:54;;;;;;;14.43;8.75;;;;;;;16.17;100.00;101523.47;2085190;28;20049;-72
2022/10/25 05:09:16;;;;;;;15.93;10.35;;;;;;;16.17;100.00;101535.00;2098866;28;20119;-72
2022/10/25 05:10:39;;;;;;;16.70;9.05;;;;;;;16.15;100.00;101527.88;2090703;28;20188;-72
2022/10/25 05:12:02;;;;;;;18.40;8.07;;;;;;;16.18;100.00;101535.91;2085234;28;20395;-72
2022/10/25 05:13:23;;;;;;;14.93;7.60;;;;;;;16.29;100.00;101539.50;2082918;28;20065;-73
2022/10/25 05:14:45;;;;;;;14.45;7.82;;;;;;;16.42;100.00;101543.13;2079931;28;20045;-72
2022/10/25 05:16:12;;;;;;;11.00;7.15;;;;;;;16.58;100.00;101545.88;2089271;28;20048;-72
2022/10/25 05:17:35;;;;;;;13.95;6.72;;;;;;;16.77;100.00;101551.28;2085437;28;20037;-72
2022/10/25 05:19:00;;;;;;;12.85;6.35;;;;;;;16.96;100.00;101546.00;2082589;28;20429;-72
2022/10/25 05:20:22;;;;;;;13.80;7.10;;;;;;;17.18;100.00;101554.94;2089490;28;20056;-72
2022/10/25 05:21:44;;;;;;;12.15;6.88;;;;;;;17.35;100.00;101553.16;2096411;28;20060;-72
2022/10/25 05:23:06;;;;;;;12.82;6.28;;;;;;;17.52;100.00;101551.38;2096082;28;20152;-72
2022/10/25 05:24:28;;;;;;;;;;;;;;;17.66;100.00;101553.19;2086145;28;20052;-72
2022/10/25 05:26:00;;;;;;;14.00;5.15;;;;;;;17.85;100.00;101555.81;2091856;28;20342;-73
2022/10/25 05:27:23;;;;;;;;;;;;;;;18.00;100.00;101562.03;2087339;28;20060;-73
2022/10/25 05:28:45;;;;;;;9.85;4.97;;;;;;;18.16;100.00;101550.44;2083131;28;19971;-72
2022/10/25 05:30:09;;;;;;;10.70;4.88;;;;;;;18.32;100.00;101546.81;2091407;28;20048;-73
2022/10/25 05:31:35;;;;;;;10.95;5.28;;;;;;;18.46;100.00;101544.09;2094263;28;20143;-72
2022/10/25 05:32:56;;;;;;;19.85;5.68;;;;;;;18.59;100.00;101548.50;2084461;28;20107;-73
2022/10/25 05:34:21;;;;;;;10.75;4.43;;;;;;;18.71;100.00;101553.78;2090916;28;20090;-72
2022/10/25 05:35:42;;;;;;;19.05;5.38;;;;;;;18.84;100.00;101552.84;2085425;28;20045;-72
2022/10/25 05:37:05;;;;;;;13.30;4.78;;;;;;;18.98;100.00;101558.09;2082527;28;20149;-72
2022/10/25 05:38:26;;;;;;;14.02;5.10;;;;;;;19.09;100.00;101559.84;2085379;28;20049;-72
2022/10/25 05:39:52;;;;;;;13.25;5.60;;;;;;;19.21;100.00;101557.97;2085837;28;20139;-73
2022/10/25 05:41:15;;;;;;;18.95;5.35;;;;;;;19.33;100.00;101561.44;2077880;28;20096;-73
2022/10/25 05:42:38;;;;;;;14.20;4.90;;;;;;;19.43;100.00;101556.88;2089322;28;20127;-73
2022/10/25 05:44:03;;;;;;;10.00;5.07;;;;;;;19.55;100.00;101554.19;2096377;28;20093;-72
2022/10/25 05:45:25;;;;;;;16.70;5.75;;;;;;;19.73;100.00;101556.69;2085630;28;20045;-73
2022/10/25 05:46:48;;;;;;;15.48;5.97;;;;;;;19.88;100.00;101555.66;2091144;28;20151;-72
2022/10/25 05:48:09;;;;;;;13.45;4.55;;;;;;;20.00;100.00;101551.94;2088198;28;20053;-72
2022/10/25 05:49:39;;;;;;;14.57;5.18;;;;;;;20.12;100.00;101550.03;2088140;28;20048;-72
2022/10/25 05:51:11;;;;;;;14.32;4.85;;;;;;;20.28;100.00;101553.44;2086316;28;20160;-72
2022/10/25 05:52:34;;;;;;;13.80;4.28;;;;;;;20.41;100.00;101557.78;2086931;28;20061;-73
2022/10/25 05:53:59;;;;;;;11.00;4.82;;;;;;;20.55;100.00;101555.78;2089960;28;20540;-72
2022/10/25 05:55:22;;;;;;;10.18;5.30;;;;;;;20.65;100.00;101560.16;2089242;28;20052;-72
2022/10/25 05:56:43;;;;;;;10.90;4.22;;;;;;;20.78;100.00;101554.63;2093241;28;20429;-72
2022/10/25 05:58:05;;;;;;;7.18;3.97;;;;;;;20.87;100.00;101554.50;2089898;28;20584;-72
2022/10/25 05:59:28;;;;;;;9.18;4.05;;;;;;;20.99;100.00;101557.91;2087628;28;20059;-72
2022/10/25 06:00:49;;;;;;;9.02;3.88;;;;;;;21.11;100.00;101554.13;2085517;28;20040;-72
2022/10/25 06:02:14;;;;;;;6.95;2.97;;;;;;;21.22;100.00;101548.63;2091361;28;20739;-73
2022/10/25 06:03:36;;;;;;;10.23;3.03;;;;;;;21.36;100.00;101554.66;2076973;28;20045;-73
2022/10/25 06:05:00;;;;;;;10.70;3.60;;;;;;;21.46;99.53;101551.78;2082957;28;20102;-73
2022/10/25 06:06:23;;;;;;;8.88;4.43;;;;;;;21.58;98.95;101545.34;2093513;28;20045;-73
2022/10/25 06:07:45;;;;;;;11.43;4.30;;;;;;;21.70;98.54;101544.25;2093684;28;20045;-73
2022/10/25 06:09:09;;;;;;;10.32;3.78;;;;;;;21.77;97.90;101557.56;2085436;28;20060;-73
2022/10/25 06:10:30;;;;;;;9.70;3.78;;;;;;;21.82;97.27;101549.38;2084252;28;20474;-73
2022/10/25 06:11:52;;;;;;;9.75;4.63;;;;;;;21.90;96.96;101541.19;2078120;28;20605;-73
2022/10/25 06:13:14;;;;;;;7.65;3.17;;;;;;;22.02;96.22;101546.38;2100258;28;20096;-73
2022/10/25 06:14:36;;;;;;;8.27;4.03;;;;;;;22.12;95.90;101548.84;2098217;28;20045;-74
2022/10/25 06:15:58;;;;;;;4.95;3.00;;;;;;;22.25;95.39;101545.00;2086807;28;20041;-73
2022/10/25 06:17:21;;;;;;;9.80;2.95;;;;;;;22.34;94.69;101538.56;2092340;28;20059;-74
2022/10/25 06:18:42;;;;;;;11.55;3.88;;;;;;;22.45;94.68;101549.13;2086928;28;20037;-73
2022/10/25 06:20:07;;;;;;;11.32;4.22;;;;;;;22.57;94.54;101546.16;2092278;28;20484;-73
2022/10/25 06:21:29;;;;;;;7.60;3.78;;;;;;;22.67;93.91;101548.59;2095391;28;20400;-73
2022/10/25 06:22:52;;;;;;;8.27;3.58;;;;;;;22.82;93.17;101550.13;2086616;28;20099;-74
2022/10/25 06:24:15;;;;;;;10.05;3.83;;;;;;;22.96;92.21;101542.63;2092220;28;20378;-74
2022/10/25 06:25:36;;;;;;;8.35;3.05;;;;;;;23.09;91.01;101551.28;2095337;28;20075;-74
2022/10/25 06:26:58;;;;;;;17.05;4.05;;;;;;;23.19;90.16;101549.25;2097748;28;20131;-74